Time;durP1;ratioP1;P1;durP2;ratioP2;P2;SDS_P1;SDS_P2;PMS_P1;PMS_P2;Temp;Humidity;BMP_temperature;BMP_pressure;BME280_temperature;BME280_humidity;BME280_pressure;Samples;Min_cycle;Max_cycle;Signal;HPM_P1;HPM_P2
2023/04/21 00:01:57;;;;;;;7.30;0.70;;;;;;;7.65;100.00;99101.09;105383;1256;67109;-48
2023/04/21 00:04:27;;;;;;;7.50;0.60;;;;;;;7.63;100.00;99098.64;105605;1257;73875;-49
2023/04/21 00:06:55;;;;;;;5.40;0.60;;;;;;;7.59;100.00;99099.34;105559;1260;61390;-51
2023/04/21 00:09:24;;;;;;;8.20;0.70;;;;;;;7.58;100.00;99099.96;105476;1259;63062;-50
2023/04/21 00:11:52;;;;;;;15.20;1.50;;;;;;;7.57;100.00;99097.52;105655;1256;74637;-49
2023/04/21 00:14:20;;;;;;;6.40;0.70;;;;;;;7.56;100.00;99095.58;105534;1256;68788;-51
2023/04/21 00:16:51;;;;;;;9.80;0.70;;;;;;;7.57;100.00;99096.80;105558;1266;72145;-51
2023/04/21 00:19:19;;;;;;;14.50;0.60;;;;;;;7.59;100.00;99100.61;105611;1257;60924;-50
2023/04/21 00:21:47;;;;;;;9.50;0.70;;;;;;;7.62;100.00;99095.69;105703;1254;60560;-49
2023/04/21 00:24:15;;;;;;;3.60;0.90;;;;;;;7.65;100.00;99092.16;105571;1254;73354;-48
2023/04/21 00:26:43;;;;;;;5.30;0.80;;;;;;;7.67;100.00;99092.75;105517;1257;68097;-49
2023/04/21 00:29:12;;;;;;;8.10;0.90;;;;;;;7.69;100.00;99095.33;106390;1254;74196;-49
2023/04/21 00:31:40;;;;;;;5.30;0.50;;;;;;;7.70;100.00;99093.48;105996;1262;60552;-49
2023/04/21 00:34:08;;;;;;;11.50;0.70;;;;;;;7.71;100.00;99093.46;105351;1254;62739;-50
2023/04/21 00:36:36;;;;;;;7.90;0.60;;;;;;;7.69;100.00;99090.85;105417;1259;72013;-50
2023/04/21 00:39:04;;;;;;;10.50;1.60;;;;;;;7.69;100.00;99091.60;105465;1257;69058;-49
2023/04/21 00:41:33;;;;;;;9.30;0.70;;;;;;;7.67;100.00;99087.23;106544;1254;73098;-50
2023/04/21 00:44:05;;;;;;;5.70;0.80;;;;;;;7.64;100.00;99086.27;105337;1261;60745;-50
2023/04/21 00:46:34;;;;;;;12.40;0.70;;;;;;;7.63;100.00;99085.64;105273;1254;60531;-51
2023/04/21 00:49:05;;;;;;;7.90;0.90;;;;;;;7.61;100.00;99088.21;106763;1256;73145;-51
2023/04/21 00:51:34;;;;;;;5.50;1.40;;;;;;;7.61;100.00;99091.25;105378;1254;68142;-50
2023/04/21 00:54:06;;;;;;;5.90;0.70;;;;;;;7.60;100.00;99093.41;105510;1257;72608;-50
2023/04/21 00:56:34;;;;;;;7.60;0.70;;;;;;;7.60;100.00;99093.59;105746;1266;62264;-49
2023/04/21 00:59:03;;;;;;;7.40;0.70;;;;;;;7.61;100.00;99090.71;105596;1259;60495;-50
2023/04/21 01:01:33;;;;;;;6.70;0.60;;;;;;;7.62;100.00;99086.94;106253;1257;74746;-50
2023/04/21 01:04:02;;;;;;;6.50;0.60;;;;;;;7.62;100.00;99089.41;106080;1254;67504;-50
2023/04/21 01:06:33;;;;;;;7.40;0.60;;;;;;;7.61;100.00;99084.98;105473;1254;73597;-49
2023/04/21 01:09:03;;;;;;;6.60;0.90;;;;;;;7.60;100.00;99084.66;105240;1260;60895;-50
2023/04/21 01:11:31;;;;;;;10.10;1.70;;;;;;;7.59;100.00;99085.61;106020;1255;61286;-49
2023/04/21 01:14:00;;;;;;;10.80;0.90;;;;;;;7.57;100.00;99085.70;106836;1255;73040;-49
2023/04/21 01:16:28;;;;;;;12.60;0.60;;;;;;;7.55;100.00;99084.92;105749;1259;67913;-48
2023/04/21 01:18:56;;;;;;;9.40;0.60;;;;;;;7.53;100.00;99086.61;105294;1258;73561;-50
2023/04/21 01:21:24;;;;;;;5.80;0.60;;;;;;;7.50;100.00;99085.16;105479;1258;61504;-50
2023/04/21 01:23:54;;;;;;;5.70;0.70;;;;;;;7.45;100.00;99084.13;109038;1254;60594;-50
2023/04/21 01:26:22;;;;;;;4.70;1.00;;;;;;;7.44;100.00;99082.77;109125;1254;74240;-50
2023/04/21 01:28:50;;;;;;;10.10;0.60;;;;;;;7.44;100.00;99080.26;109114;1254;66834;-50
2023/04/21 01:31:19;;;;;;;12.30;0.60;;;;;;;7.45;100.00;99076.48;107210;1254;71593;-49
2023/04/21 01:33:47;;;;;;;9.60;0.80;;;;;;;7.47;100.00;99075.83;105610;1254;62287;-50
2023/04/21 01:36:16;;;;;;;6.20;0.70;;;;;;;7.49;100.00;99075.20;106145;1254;60618;-50
2023/04/21 01:38:44;;;;;;;9.00;0.60;;;;;;;7.50;100.00;99071.39;105374;1254;73193;-51
2023/04/21 01:41:12;;;;;;;10.00;1.00;;;;;;;7.50;100.00;99071.01;109098;1254;65888;-50
2023/04/21 01:43:40;;;;;;;4.50;0.60;;;;;;;7.51;100.00;99072.25;109192;1253;71450;-50
2023/04/21 01:46:08;;;;;;;4.40;0.60;;;;;;;7.52;100.00;99072.02;109194;1254;60351;-50
2023/04/21 01:48:37;;;;;;;7.50;1.10;;;;;;;7.50;100.00;99071.02;109149;1254;59877;-50
2023/04/21 01:51:06;;;;;;;14.20;0.90;;;;;;;7.49;100.00;99067.02;109178;1253;72541;-50
2023/04/21 01:53:34;;;;;;;12.60;0.80;;;;;;;7.47;100.00;99063.34;106686;1255;68159;-51
2023/04/21 01:56:05;;;;;;;8.80;0.60;;;;;;;7.45;100.00;99061.27;105411;1254;73121;-51
2023/04/21 01:58:33;;;;;;;10.60;0.70;;;;;;;7.45;100.00;99061.30;109174;1253;60955;-47
2023/04/21 02:01:02;;;;;;;9.90;1.20;;;;;;;7.44;100.00;99061.35;108994;1254;60967;-47
2023/04/21 02:03:30;;;;;;;7.90;0.80;;;;;;;7.44;100.00;99060.77;109153;1253;72346;-48
2023/04/21 02:05:58;;;;;;;10.60;0.70;;;;;;;7.45;100.00;99059.70;109203;1253;68036;-48
2023/04/21 02:08:26;;;;;;;7.40;0.60;;;;;;;7.44;100.00;99062.03;109165;1253;71496;-47
2023/04/21 02:10:54;;;;;;;11.60;0.80;;;;;;;7.46;100.00;99057.30;109110;1253;62104;-50
2023/04/21 02:13:23;;;;;;;9.90;0.70;;;;;;;7.49;100.00;99053.41;108639;1257;59209;-48
2023/04/21 02:15:51;;;;;;;8.70;1.50;;;;;;;7.51;100.00;99052.05;105718;1254;73827;-47
2023/04/21 02:18:38;;;;;;;6.80;0.60;;;;;;;7.53;100.00;99046.27;105936;1254;68954;-49
2023/04/21 02:21:06;;;;;;;5.40;0.60;;;;;;;7.54;100.00;99046.77;105706;1255;73111;-48
2023/04/21 02:23:35;;;;;;;9.10;0.70;;;;;;;7.52;100.00;99044.50;105450;1257;61425;-45
2023/04/21 02:26:02;;;;;;;10.10;0.70;;;;;;;7.50;100.00;99045.50;105340;1260;60490;-47
2023/04/21 02:28:32;;;;;;;8.40;0.60;;;;;;;7.47;100.00;99046.01;105406;1257;72429;-45
2023/04/21 02:31:00;;;;;;;8.60;1.10;;;;;;;7.44;100.00;99044.71;105411;1254;67445;-51
2023/04/21 02:33:28;;;;;;;11.10;0.60;;;;;;;7.42;100.00;99045.52;106088;1255;72136;-48
2023/04/21 02:35:56;;;;;;;11.90;1.00;;;;;;;7.40;100.00;99043.88;106569;1254;60849;-51
2023/04/21 02:38:24;;;;;;;8.20;1.30;;;;;;;7.37;100.00;99040.06;107098;1253;63989;-49
2023/04/21 02:40:52;;;;;;;7.30;0.70;;;;;;;7.37;100.00;99041.52;105601;1256;73881;-47
2023/04/21 02:43:20;;;;;;;13.00;0.80;;;;;;;7.38;100.00;99041.61;105559;1254;68185;-48
2023/04/21 02:45:49;;;;;;;9.10;0.70;;;;;;;7.40;100.00;99043.12;105454;1257;71897;-46
2023/04/21 02:48:25;;;;;;;17.10;1.00;;;;;;;7.42;100.00;99042.67;105689;1256;60862;-48
2023/04/21 02:50:53;;;;;;;4.90;0.80;;;;;;;7.44;100.00;99045.63;106310;1254;60596;-47
2023/04/21 02:53:21;;;;;;;9.00;0.60;;;;;;;7.46;100.00;99044.64;105435;1254;73962;-45
2023/04/21 02:55:51;;;;;;;8.70;0.60;;;;;;;7.48;100.00;99040.46;105594;1257;68285;-48
2023/04/21 02:58:19;;;;;;;7.00;1.10;;;;;;;7.49;100.00;99040.73;106190;1257;72946;-47
2023/04/21 03:00:47;;;;;;;4.40;0.70;;;;;;;7.48;100.00;99035.09;105814;1257;60531;-49
2023/04/21 03:03:15;;;;;;;6.30;0.60;;;;;;;7.47;100.00;99032.28;106016;1254;60679;-45
2023/04/21 03:05:44;;;;;;;5.10;0.80;;;;;;;7.47;100.00;99029.26;105497;1257;74007;-51
2023/04/21 03:08:12;;;;;;;11.20;1.30;;;;;;;7.44;100.00;99033.30;105766;1254;67585;-52
2023/04/21 03:10:40;;;;;;;3.00;0.60;;;;;;;7.42;100.00;99031.44;105670;1257;73540;-50
2023/04/21 03:13:08;;;;;;;3.30;0.60;;;;;;;7.39;100.00;99032.84;105543;1257;60387;-51
2023/04/21 03:15:36;;;;;;;2.90;0.60;;;;;;;7.37;100.00;99032.77;105519;1254;61333;-50
2023/04/21 03:18:04;;;;;;;8.20;0.80;;;;;;;7.33;100.00;99032.95;105418;1253;72507;-50
2023/04/21 03:20:32;;;;;;;9.80;0.80;;;;;;;7.30;100.00;99032.36;105967;1257;68127;-51
2023/04/21 03:23:00;;;;;;;11.00;0.60;;;;;;;7.29;100.00;99040.09;105995;1257;73042;-51
2023/04/21 03:25:28;;;;;;;7.80;0.80;;;;;;;7.29;100.00;99037.23;105685;1257;61384;-52
2023/04/21 03:27:56;;;;;;;7.10;0.80;;;;;;;7.28;100.00;99039.41;105607;1255;60445;-50
2023/04/21 03:30:25;;;;;;;11.00;1.10;;;;;;;7.29;100.00;99042.23;105602;1257;74831;-48
2023/04/21 03:32:54;;;;;;;12.00;0.70;;;;;;;7.29;100.00;99039.55;105612;1254;66999;-49
2023/04/21 03:35:22;;;;;;;8.60;0.70;;;;;;;7.31;100.00;99045.20;105805;1254;72470;-50
2023/04/21 03:37:50;;;;;;;7.30;0.60;;;;;;;7.31;100.00;99040.90;105423;1257;61251;-52
2023/04/21 03:40:18;;;;;;;14.80;1.00;;;;;;;7.31;100.00;99036.25;105448;1259;60340;-50
2023/04/21 03:42:47;;;;;;;9.70;0.70;;;;;;;7.32;100.00;99033.52;105475;1253;74080;-50
2023/04/21 03:45:18;;;;;;;8.20;1.00;;;;;;;7.33;100.00;99035.77;105664;1258;67132;-50
2023/04/21 03:47:46;;;;;;;16.00;1.00;;;;;;;7.34;100.00;99038.58;105443;1254;71602;-51
2023/04/21 03:50:14;;;;;;;8.90;0.90;;;;;;;7.34;100.00;99037.52;105307;1257;60413;-48
2023/04/21 03:52:42;;;;;;;11.70;1.70;;;;;;;7.34;100.00;99034.29;105730;1254;61389;-49
2023/04/21 03:55:10;;;;;;;9.60;1.30;;;;;;;7.35;100.00;99033.22;105732;1254;72671;-51
2023/04/21 03:57:40;;;;;;;14.00;1.70;;;;;;;7.35;100.00;99032.69;105903;1254;67651;-52
2023/04/21 04:00:09;;;;;;;11.70;1.20;;;;;;;7.34;100.00;99032.00;105455;1257;73416;-52
2023/04/21 04:02:40;;;;;;;8.80;0.80;;;;;;;7.33;100.00;99027.57;106156;1257;60384;-51
2023/04/21 04:05:08;;;;;;;10.70;1.30;;;;;;;7.31;100.00;99028.40;105954;1255;60711;-51
2023/04/21 04:07:36;;;;;;;8.80;0.90;;;;;;;7.29;100.00;99025.83;105476;1253;72461;-50
2023/04/21 04:10:04;;;;;;;8.70;1.20;;;;;;;7.27;100.00;99022.53;105457;1257;67061;-51
2023/04/21 04:12:33;;;;;;;8.50;1.20;;;;;;;7.25;100.00;99019.58;105523;1257;72888;-49
2023/04/21 04:15:01;;;;;;;9.00;1.00;;;;;;;7.25;100.00;99016.90;106082;1254;61627;-51
2023/04/21 04:17:30;;;;;;;14.30;0.80;;;;;;;7.26;100.00;99017.73;108778;1253;61000;-53
2023/04/21 04:19:57;;;;;;;12.40;1.10;;;;;;;7.28;100.00;99021.75;108996;1253;73033;-51
2023/04/21 04:22:25;;;;;;;9.00;1.10;;;;;;;7.31;100.00;99022.00;105388;1257;64827;-50
2023/04/21 04:24:54;;;;;;;7.60;1.00;;;;;;;7.31;100.00;99020.19;105679;1253;71791;-50
2023/04/21 04:27:22;;;;;;;11.30;1.00;;;;;;;7.33;100.00;99020.27;108810;1255;61963;-51
2023/04/21 04:29:50;;;;;;;9.90;1.00;;;;;;;7.35;100.00;99023.36;109097;1253;61156;-52
2023/04/21 04:32:18;;;;;;;10.20;0.90;;;;;;;7.39;100.00;99026.77;106861;1257;74706;-51
2023/04/21 04:34:45;;;;;;;11.50;0.90;;;;;;;7.42;100.00;99027.15;104972;1253;67618;-50
2023/04/21 04:37:13;;;;;;;8.00;1.20;;;;;;;7.43;100.00;99027.64;105153;1257;71658;-51
2023/04/21 04:39:41;;;;;;;13.60;1.00;;;;;;;7.43;100.00;99030.11;105107;1254;61209;-50
2023/04/21 04:42:10;;;;;;;10.10;1.20;;;;;;;7.45;100.00;99030.23;104745;1253;61455;-50
2023/04/21 04:44:40;;;;;;;11.50;1.20;;;;;;;7.47;100.00;99033.20;104959;1255;71543;-49
2023/04/21 04:47:08;;;;;;;13.30;1.60;;;;;;;7.48;100.00;99032.60;109157;1254;67172;-51
2023/04/21 04:49:36;;;;;;;8.60;1.50;;;;;;;7.49;100.00;99035.03;109106;1254;72627;-52
2023/04/21 04:52:04;;;;;;;9.60;1.40;;;;;;;7.51;100.00;99035.98;108957;1253;169799;-52
2023/04/21 04:55:52;;;;;;;9.50;1.10;;;;;;;7.60;100.00;99032.56;102386;1292;601258;-51
2023/04/21 04:58:21;;;;;;;7.60;1.20;;;;;;;7.63;100.00;99038.48;104846;1268;62744;-49
2023/04/21 05:00:49;;;;;;;10.00;1.30;;;;;;;7.70;100.00;99040.11;108376;1265;61286;-52
2023/04/21 05:03:18;;;;;;;15.80;1.40;;;;;;;7.78;100.00;99037.77;108173;1264;75872;-52
2023/04/21 05:05:47;;;;;;;7.00;1.10;;;;;;;7.88;100.00;99035.81;108414;1266;68143;-52
2023/04/21 05:08:15;;;;;;;12.70;2.10;;;;;;;7.98;100.00;99033.89;108493;1264;70194;-51
2023/04/21 05:10:45;;;;;;;10.20;1.00;;;;;;;8.09;100.00;99027.30;108409;1263;61405;-51
2023/04/21 05:13:14;;;;;;;14.00;1.60;;;;;;;8.21;100.00;99034.90;108531;1264;59193;-52
2023/04/21 05:15:42;;;;;;;9.20;0.90;;;;;;;8.32;100.00;99033.47;108253;1263;72531;-52
2023/04/21 05:18:10;;;;;;;8.10;1.00;;;;;;;8.42;100.00;99037.30;108362;1263;65776;-52
2023/04/21 05:20:41;;;;;;;13.20;1.20;;;;;;;8.50;100.00;99035.63;108329;1267;73820;-50
2023/04/21 05:23:09;;;;;;;11.50;1.10;;;;;;;8.56;100.00;99030.65;108245;1264;58724;-49
2023/04/21 05:25:37;;;;;;;13.90;1.90;;;;;;;8.60;100.00;99035.83;106080;1265;59188;-50
2023/04/21 05:28:05;;;;;;;9.90;1.00;;;;;;;8.61;100.00;99033.63;105036;1268;72178;-51
2023/04/21 05:30:33;;;;;;;12.10;1.80;;;;;;;8.59;100.00;99032.06;105330;1266;67092;-49
2023/04/21 05:33:01;;;;;;;13.10;1.00;;;;;;;8.60;100.00;99030.95;103976;1263;73877;-48
2023/04/21 05:35:30;;;;;;;8.20;1.60;;;;;;;8.63;100.00;99032.04;104403;1262;61073;-50
2023/04/21 05:37:58;;;;;;;8.80;1.60;;;;;;;8.69;100.00;99035.14;107652;1266;60567;-51
2023/04/21 05:40:26;;;;;;;7.90;0.90;;;;;;;8.74;100.00;99034.90;104914;1268;73005;-48
2023/04/21 05:42:54;;;;;;;17.30;2.30;;;;;;;8.80;100.00;99030.27;104889;1269;69063;-45
2023/04/21 05:45:21;;;;;;;10.50;1.20;;;;;;;8.89;100.00;99029.45;105204;1263;71743;-50
2023/04/21 05:47:50;;;;;;;20.40;1.60;;;;;;;8.98;100.00;99028.77;104902;1268;61489;-48
2023/04/21 05:50:18;;;;;;;14.20;2.00;;;;;;;9.07;100.00;99026.50;104979;1268;59489;-50
2023/04/21 05:52:46;;;;;;;14.90;1.40;;;;;;;9.15;100.00;99026.98;104839;1263;74033;-51
2023/04/21 05:55:14;;;;;;;14.10;4.10;;;;;;;9.22;100.00;99023.74;104425;1267;66074;-49
2023/04/21 05:57:42;;;;;;;12.00;2.50;;;;;;;9.26;100.00;99023.35;104353;1266;73354;-49
2023/04/21 06:00:10;;;;;;;25.60;5.10;;;;;;;9.29;100.00;99024.43;105268;1268;60291;-49
2023/04/21 06:02:39;;;;;;;20.30;6.60;;;;;;;9.30;100.00;99024.36;104855;1269;60182;-48
2023/04/21 06:05:07;;;;;;;33.20;11.60;;;;;;;9.32;100.00;99027.86;104912;1266;72774;-49
2023/04/21 06:07:36;;;;;;;22.80;3.00;;;;;;;9.36;100.00;99023.33;104832;1263;66785;-50
2023/04/21 06:10:05;;;;;;;23.40;5.00;;;;;;;9.42;100.00;99018.52;105007;1268;70835;-50
2023/04/21 06:12:33;;;;;;;17.20;3.30;;;;;;;9.48;100.00;99015.15;105201;1264;60329;-50
2023/04/21 06:15:01;;;;;;;8.40;1.80;;;;;;;9.56;100.00;99013.06;105151;1266;59907;-48
2023/04/21 06:17:30;;;;;;;11.20;1.80;;;;;;;9.67;100.00;99008.15;104804;1268;72932;-51
2023/04/21 06:19:58;;;;;;;11.40;1.60;;;;;;;9.77;100.00;99006.28;105269;1266;66356;-50
2023/04/21 06:22:26;;;;;;;19.60;2.60;;;;;;;9.87;100.00;99000.89;104202;1265;73453;-50
2023/04/21 06:24:54;;;;;;;10.40;2.20;;;;;;;9.97;100.00;98997.47;105903;1255;60298;-51
2023/04/21 06:27:22;;;;;;;24.50;4.70;;;;;;;10.08;100.00;99000.04;104876;1259;59610;-49
2023/04/21 06:29:53;;;;;;;26.00;5.50;;;;;;;10.19;100.00;98998.14;105044;1256;72395;-49
2023/04/21 06:32:21;;;;;;;10.80;1.20;;;;;;;10.31;100.00;98995.17;105108;1253;67227;-49
2023/04/21 06:34:49;;;;;;;7.70;0.90;;;;;;;10.43;100.00;98994.95;105142;1255;71594;-49
2023/04/21 06:37:17;;;;;;;11.30;1.80;;;;;;;10.57;100.00;98989.48;105469;1256;59900;-52
2023/04/21 06:39:45;;;;;;;8.00;0.90;;;;;;;10.70;100.00;98990.49;105330;1259;59653;-50
2023/04/21 06:42:13;;;;;;;7.90;0.70;;;;;;;10.82;100.00;98989.01;105294;1258;73311;-51
2023/04/21 06:44:44;;;;;;;8.10;0.70;;;;;;;10.95;100.00;98989.45;105373;1256;67584;-51
2023/04/21 06:47:12;;;;;;;9.40;0.70;;;;;;;11.07;100.00;98991.75;105617;1256;71552;-52
2023/04/21 06:49:40;;;;;;;4.40;0.80;;;;;;;11.18;100.00;98988.05;105560;1256;60673;-51
2023/04/21 06:52:08;;;;;;;10.10;1.30;;;;;;;11.28;100.00;98988.29;105582;1256;60170;-48
2023/04/21 06:54:36;;;;;;;7.60;0.90;;;;;;;11.36;100.00;98981.63;105564;1255;73098;-49
2023/04/21 06:57:04;;;;;;;14.30;1.20;;;;;;;11.46;100.00;98985.34;105451;1256;67309;-49
2023/04/21 06:59:33;;;;;;;13.40;1.20;;;;;;;11.56;100.00;98983.99;105653;1257;71638;-50
2023/04/21 07:02:01;;;;;;;8.50;0.90;;;;;;;11.64;100.00;98981.11;105821;1256;59638;-48
2023/04/21 07:04:30;;;;;;;12.00;1.00;;;;;;;11.71;100.00;98984.62;105667;1257;60514;-47
2023/04/21 07:06:59;;;;;;;9.50;0.80;;;;;;;11.73;100.00;98985.57;105592;1254;73223;-50
2023/04/21 07:09:32;;;;;;;10.10;1.20;;;;;;;11.72;100.00;98989.02;105729;1254;69393;-51
2023/04/21 07:12:01;;;;;;;7.60;1.40;;;;;;;11.68;100.00;98993.23;105883;1255;71363;-50
2023/04/21 07:14:30;;;;;;;11.10;1.90;;;;;;;11.61;100.00;98986.29;105610;1257;61409;-46
2023/04/21 07:16:58;;;;;;;8.60;0.80;;;;;;;11.55;100.00;98991.02;105819;1256;61195;-49
2023/04/21 07:19:26;;;;;;;12.70;1.10;;;;;;;11.49;100.00;98998.58;105608;1257;72136;-49
2023/04/21 07:21:54;;;;;;;13.00;1.40;;;;;;;11.41;100.00;98997.70;105369;1256;66775;-49
2023/04/21 07:24:22;;;;;;;13.30;1.50;;;;;;;11.33;100.00;98998.00;104949;1257;72609;-50
2023/04/21 07:26:50;;;;;;;13.60;1.20;;;;;;;11.29;100.00;98993.39;105767;1256;60355;-49
2023/04/21 07:29:18;;;;;;;16.60;1.80;;;;;;;11.29;100.00;98989.80;105666;1255;60695;-49
2023/04/21 07:31:47;;;;;;;10.40;1.00;;;;;;;11.30;100.00;98989.20;105755;1257;73056;-47
2023/04/21 07:34:15;;;;;;;8.40;1.20;;;;;;;11.32;100.00;98990.36;105866;1257;67347;-48
2023/04/21 07:36:43;;;;;;;4.50;1.40;;;;;;;11.34;100.00;98992.90;106322;1257;73076;-47
2023/04/21 07:39:11;;;;;;;12.30;1.40;;;;;;;11.39;100.00;98992.20;105476;1258;60690;-50
2023/04/21 07:41:39;;;;;;;11.60;1.00;;;;;;;11.47;100.00;98996.96;105233;1256;59621;-48
2023/04/21 07:44:07;;;;;;;7.10;0.80;;;;;;;11.52;100.00;98996.09;105568;1256;73221;-50
2023/04/21 07:46:35;;;;;;;5.30;0.70;;;;;;;11.53;100.00;98996.72;109116;1253;67288;-49
2023/04/21 07:49:03;;;;;;;17.10;0.90;;;;;;;11.53;100.00;98995.88;109220;1254;73686;-51
2023/04/21 07:51:31;;;;;;;9.10;1.00;;;;;;;11.49;100.00;99000.96;109212;1252;59397;-49
2023/04/21 07:53:59;;;;;;;11.60;1.00;;;;;;;11.47;100.00;99002.20;109199;1256;59544;-48
2023/04/21 07:56:27;;;;;;;9.10;0.60;;;;;;;11.42;100.00;98994.24;109195;1251;73511;-49
2023/04/21 07:58:55;;;;;;;8.60;0.90;;;;;;;11.37;100.00;98993.80;109184;1253;65291;-49
2023/04/21 08:01:23;;;;;;;7.40;0.80;;;;;;;11.34;100.00;98998.98;108960;1254;72532;-50
2023/04/21 08:03:51;;;;;;;8.30;0.90;;;;;;;11.33;100.00;99002.10;107994;1256;60178;-45
2023/04/21 08:06:19;;;;;;;10.00;0.80;;;;;;;11.35;100.00;98995.36;109171;1254;59444;-49
2023/04/21 08:08:49;;;;;;;7.30;0.70;;;;;;;11.36;100.00;98998.51;109055;1256;71944;-49
2023/04/21 08:11:17;;;;;;;11.20;0.60;;;;;;;11.37;100.00;98996.34;109198;1252;66077;-51
2023/04/21 08:13:45;;;;;;;4.80;0.60;;;;;;;11.35;100.00;98999.64;109284;1252;73445;-48
2023/04/21 08:16:13;;;;;;;9.80;0.80;;;;;;;11.34;100.00;98998.48;107453;1255;60521;-48
2023/04/21 08:18:41;;;;;;;8.00;0.70;;;;;;;11.31;100.00;99001.36;109088;1253;60633;-49
2023/04/21 08:21:09;;;;;;;11.40;1.10;;;;;;;11.30;100.00;99000.52;108009;1254;73564;-48
2023/04/21 08:23:37;;;;;;;9.80;0.70;;;;;;;11.33;100.00;99002.67;108474;1255;67874;-48
2023/04/21 08:26:05;;;;;;;17.00;0.70;;;;;;;11.38;100.00;99007.78;104860;1258;70475;-49
2023/04/21 08:28:33;;;;;;;5.10;0.50;;;;;;;11.46;100.00;98999.02;104753;1254;59950;-48
2023/04/21 08:31:01;;;;;;;7.50;0.60;;;;;;;11.57;100.00;98999.02;104953;1256;59525;-51
2023/04/21 08:33:30;;;;;;;3.80;0.50;;;;;;;11.70;100.00;98992.58;106400;1254;72290;-49
2023/04/21 08:35:58;;;;;;;4.20;0.50;;;;;;;11.84;100.00;98989.90;106487;1257;67890;-51
2023/04/21 08:38:43;;;;;;;6.50;0.50;;;;;;;12.00;100.00;98994.61;105742;1256;72591;-48
2023/04/21 08:41:11;;;;;;;9.90;1.30;;;;;;;12.10;100.00;98995.17;105208;1260;59935;-47
2023/04/21 08:43:40;;;;;;;4.30;0.50;;;;;;;12.20;100.00;98998.31;105464;1255;60233;-50
2023/04/21 08:46:08;;;;;;;6.70;0.50;;;;;;;12.26;100.00;98988.69;105338;1254;74167;-47
2023/04/21 08:48:37;;;;;;;9.70;0.60;;;;;;;12.29;100.00;98996.63;105275;1256;66694;-48
2023/04/21 08:51:08;;;;;;;5.20;0.90;;;;;;;12.30;100.00;98993.46;105908;1256;72646;-49
2023/04/21 08:53:36;;;;;;;9.70;1.20;;;;;;;12.34;100.00;98991.22;105051;1254;59586;-48
2023/04/21 08:56:05;;;;;;;7.30;0.60;;;;;;;12.37;100.00;98991.02;105354;1251;60801;-47
2023/04/21 08:58:37;;;;;;;10.40;0.60;;;;;;;12.37;100.00;98998.94;105219;1253;72383;-48
2023/04/21 09:01:05;;;;;;;4.20;0.70;;;;;;;12.38;100.00;98993.63;105824;1256;66758;-47
2023/04/21 09:03:34;;;;;;;6.10;0.50;;;;;;;12.40;100.00;98991.53;105438;1254;71669;-48
2023/04/21 09:06:07;;;;;;;4.60;0.60;;;;;;;12.44;100.00;98991.39;105617;1257;60393;-49
2023/04/21 09:08:38;;;;;;;10.50;0.40;;;;;;;12.49;100.00;98993.39;105570;1256;60405;-52
2023/04/21 09:11:06;;;;;;;2.60;0.50;;;;;;;12.53;100.00;98989.21;105124;1258;75234;-47
2023/04/21 09:13:35;;;;;;;6.80;0.60;;;;;;;12.57;100.00;98988.20;105760;1257;67135;-47
2023/04/21 09:16:17;;;;;;;4.90;0.50;;;;;;;12.60;100.00;98989.27;105528;1259;72658;-48
2023/04/21 09:18:45;;;;;;;9.40;0.50;;;;;;;12.66;100.00;98988.16;105446;1260;61918;-48
2023/04/21 09:21:14;;;;;;;4.10;0.60;;;;;;;12.68;100.00;98995.30;105438;1253;61440;-50
2023/04/21 09:23:46;;;;;;;3.20;0.70;;;;;;;12.68;100.00;98992.83;106589;1254;72896;-51
2023/04/21 09:26:15;;;;;;;8.20;0.60;;;;;;;12.73;100.00;98995.21;106580;1256;67670;-48
2023/04/21 09:28:43;;;;;;;7.10;0.50;;;;;;;12.77;100.00;98996.89;107400;1254;72849;-49
2023/04/21 09:31:15;;;;;;;11.70;0.60;;;;;;;12.76;100.00;99002.33;106732;1254;60602;-47
2023/04/21 09:33:48;;;;;;;7.60;0.40;;;;;;;12.76;100.00;98995.69;106119;1256;60776;-51
2023/04/21 09:36:24;;;;;;;4.70;0.40;;;;;;;12.81;100.00;99002.20;105064;1257;74128;-51
2023/04/21 09:38:52;;;;;;;5.10;0.50;;;;;;;12.82;100.00;98997.08;104567;1256;66390;-48
2023/04/21 09:41:42;;;;;;;6.30;0.60;;;;;;;12.84;100.00;99002.00;105218;1255;73713;-47
2023/04/21 09:44:10;;;;;;;4.00;0.50;;;;;;;12.85;100.00;98999.01;105481;1254;60461;-49
2023/04/21 09:46:38;;;;;;;3.20;0.40;;;;;;;12.80;100.00;99007.80;105633;1256;62074;-47
2023/04/21 09:49:06;;;;;;;8.30;0.50;;;;;;;12.75;100.00;99008.23;105657;1254;73029;-49
2023/04/21 09:51:34;;;;;;;3.50;0.40;;;;;;;12.72;100.00;99013.45;105952;1254;66693;-51
2023/04/21 09:54:11;;;;;;;2.70;0.60;;;;;;;12.72;100.00;99017.92;105943;1255;73865;-50
2023/04/21 09:56:57;;;;;;;5.80;0.40;;;;;;;12.72;100.00;99017.21;106055;1254;60530;-47
2023/04/21 09:59:29;;;;;;;1.90;0.50;;;;;;;12.68;100.00;99025.63;105489;1255;60312;-50
2023/04/21 10:01:58;;;;;;;8.50;0.80;;;;;;;12.60;100.00;99022.17;105458;1253;75068;-46
2023/04/21 10:04:27;;;;;;;10.50;0.80;;;;;;;12.46;100.00;99027.63;105794;1254;68311;-50
2023/04/21 10:06:56;;;;;;;3.40;0.60;;;;;;;12.36;100.00;99044.52;105910;1254;72604;-48
2023/04/21 10:09:24;;;;;;;8.10;0.60;;;;;;;12.27;100.00;99036.66;105356;1259;60428;-49
2023/04/21 10:11:52;;;;;;;4.00;0.50;;;;;;;12.23;100.00;99041.08;106354;1254;60501;-51
2023/04/21 10:14:21;;;;;;;15.40;0.70;;;;;;;12.22;100.00;99033.60;106255;1254;74498;-49
2023/04/21 10:17:08;;;;;;;3.00;0.50;;;;;;;12.24;100.00;99033.27;108382;1254;68199;-51
2023/04/21 10:19:46;;;;;;;4.90;0.50;;;;;;;12.29;100.00;99038.89;109083;1253;73815;-48
2023/04/21 10:22:14;;;;;;;1.90;0.50;;;;;;;12.32;100.00;99040.64;105161;1254;60483;-48
2023/04/21 10:24:42;;;;;;;6.70;0.70;;;;;;;12.33;100.00;99043.48;105274;1254;60701;-46
2023/04/21 10:27:10;;;;;;;9.50;0.60;;;;;;;12.25;100.00;99043.11;105739;1254;74365;-49
2023/04/21 10:29:38;;;;;;;5.80;0.50;;;;;;;12.13;100.00;99057.38;107409;1253;66405;-49
2023/04/21 10:32:44;;;;;;;4.50;0.50;;;;;;;11.99;100.00;99059.38;105341;1256;72911;-49
2023/04/21 10:35:16;;;;;;;7.10;0.50;;;;;;;11.85;100.00;99060.45;105819;1255;60746;-44
2023/04/21 10:37:45;;;;;;;6.00;0.60;;;;;;;11.75;100.00;99071.15;107480;1259;60495;-46
2023/04/21 10:40:29;;;;;;;5.90;0.50;;;;;;;11.71;100.00;99071.61;105373;1257;73208;-48
2023/04/21 10:43:41;;;;;;;2.70;0.80;;;;;;;11.64;100.00;99074.58;106250;1253;68172;-48
2023/04/21 10:46:39;;;;;;;11.50;1.00;;;;;;;11.54;100.00;99079.17;105401;1254;72855;-47
2023/04/21 10:49:09;;;;;;;6.40;0.60;;;;;;;11.47;100.00;99080.52;104943;1257;61609;-51
2023/04/21 10:51:56;;;;;;;5.60;0.50;;;;;;;11.43;100.00;99077.85;109086;1254;58557;-50
2023/04/21 10:54:24;;;;;;;3.30;0.50;;;;;;;11.42;100.00;99073.23;109134;1251;74984;-47
2023/04/21 10:56:53;;;;;;;1.90;0.50;;;;;;;11.41;100.00;99065.06;109186;1254;66444;-46
2023/04/21 10:59:21;;;;;;;9.20;0.90;;;;;;;11.43;100.00;99071.55;109208;1251;72859;-52
2023/04/21 11:01:49;;;;;;;5.20;0.50;;;;;;;11.47;100.00;99072.21;108973;1254;60012;-50
2023/04/21 11:04:18;;;;;;;5.20;0.50;;;;;;;11.47;100.00;99066.48;107342;1254;60409;-48
2023/04/21 11:07:10;;;;;;;5.20;0.50;;;;;;;11.51;100.00;99073.23;109052;1251;75091;-48
2023/04/21 11:09:39;;;;;;;4.20;0.50;;;;;;;11.58;100.00;99075.48;109176;1253;66822;-48
2023/04/21 11:12:07;;;;;;;8.40;0.90;;;;;;;11.60;100.00;99080.39;109075;1251;73081;-47
2023/04/21 11:14:37;;;;;;;6.90;0.60;;;;;;;11.58;100.00;99076.60;108288;1253;59730;-48
2023/04/21 11:17:10;;;;;;;5.50;1.00;;;;;;;11.56;100.00;99082.60;109245;1252;60961;-48
2023/04/21 11:19:38;;;;;;;13.90;0.80;;;;;;;11.55;100.00;99080.38;109249;1251;74761;-48
2023/04/21 11:22:06;;;;;;;11.40;0.80;;;;;;;11.55;100.00;99081.41;109136;1253;66195;-51
2023/04/21 11:24:35;;;;;;;6.80;0.80;;;;;;;11.59;100.00;99086.33;109182;1253;73187;-50
2023/04/21 11:27:07;;;;;;;5.50;0.80;;;;;;;11.62;100.00;99088.89;109200;1252;58845;-48
2023/04/21 11:29:35;;;;;;;5.80;0.70;;;;;;;11.65;100.00;99079.49;109007;1254;59268;-50
2023/04/21 11:32:05;;;;;;;6.00;0.50;;;;;;;11.70;100.00;99079.17;105884;1254;73553;-48